createdAt,value
2023-04-18T00:00:28.501Z,8.90
2023-04-18T00:02:34.247Z,7.80
2023-04-18T00:04:37.439Z,8.43
2023-04-18T00:06:40.698Z,8.52
2023-04-18T00:08:43.722Z,8.80
2023-04-18T00:10:46.941Z,9.15
2023-04-18T00:12:49.836Z,9.82
2023-04-18T00:14:52.691Z,9.38
2023-04-18T00:16:56.201Z,9.32
2023-04-18T00:19:02.596Z,9.30
2023-04-18T00:21:06.221Z,9.35
2023-04-18T00:23:09.922Z,6.90
2023-04-18T00:25:14.117Z,9.00
2023-04-18T00:27:17.092Z,9.93
2023-04-18T00:29:20.056Z,12.77
2023-04-18T00:31:23.371Z,7.15
2023-04-18T00:33:26.936Z,10.57
2023-04-18T00:35:32.312Z,7.78
2023-04-18T00:37:35.622Z,9.18
2023-04-18T00:39:38.457Z,8.20
2023-04-18T00:41:41.448Z,7.28
2023-04-18T00:43:44.782Z,7.18
2023-04-18T00:45:47.724Z,8.52
2023-04-18T00:47:50.694Z,11.98
2023-04-18T00:49:54.032Z,7.65
2023-04-18T00:51:59.602Z,9.95
2023-04-18T00:54:04.017Z,6.22
2023-04-18T00:56:07.932Z,12.43
2023-04-18T00:58:11.051Z,8.15
2023-04-18T01:00:15.436Z,6.93
2023-04-18T01:02:18.344Z,7.90
2023-04-18T01:04:21.448Z,6.60
2023-04-18T01:06:24.841Z,8.82
2023-04-18T01:08:29.314Z,6.70
2023-04-18T01:10:34.441Z,6.32
2023-04-18T01:12:38.012Z,6.68
2023-04-18T01:14:43.139Z,5.32
2023-04-18T01:16:47.673Z,4.95
2023-04-18T01:18:50.633Z,4.70
2023-04-18T01:20:57.287Z,4.82
2023-04-18T01:23:00.562Z,5.20
2023-04-18T01:25:09.852Z,5.22
2023-04-18T01:27:13.879Z,6.90
2023-04-18T01:29:16.788Z,5.95
2023-04-18T01:31:19.969Z,4.72
2023-04-18T01:33:23.251Z,7.22
2023-04-18T01:35:26.272Z,7.30
2023-04-18T01:37:32.901Z,5.88
2023-04-18T01:39:36.652Z,5.72
2023-04-18T01:41:42.550Z,4.53
2023-04-18T01:43:46.472Z,4.25
2023-04-18T01:45:49.282Z,4.35
2023-04-18T01:47:52.256Z,4.88
2023-04-18T01:49:55.733Z,4.88
2023-04-18T01:51:58.668Z,4.88
2023-04-18T01:54:01.569Z,7.43
2023-04-18T01:56:05.281Z,5.25
2023-04-18T01:58:09.612Z,8.93
2023-04-18T02:00:13.921Z,6.55
2023-04-18T02:02:19.632Z,4.60
2023-04-18T02:04:22.783Z,6.43
2023-04-18T02:06:26.415Z,3.95
2023-04-18T02:08:31.130Z,4.88
2023-04-18T02:10:34.050Z,4.93
2023-04-18T02:12:36.963Z,5.05
2023-04-18T02:14:41.403Z,8.00
2023-04-18T02:16:44.416Z,5.35
2023-04-18T02:18:47.913Z,4.65
2023-04-18T02:20:51.876Z,6.25
2023-04-18T02:22:55.053Z,4.97
2023-04-18T02:24:58.026Z,4.60
2023-04-18T02:27:01.187Z,6.50
2023-04-18T02:29:04.424Z,4.85
2023-04-18T02:31:14.914Z,5.78
2023-04-18T02:33:17.924Z,5.57
2023-04-18T02:35:21.585Z,5.25
2023-04-18T02:37:24.864Z,4.38
2023-04-18T02:39:27.764Z,4.97
2023-04-18T02:41:31.564Z,5.18
2023-04-18T02:43:35.197Z,4.93
2023-04-18T02:45:39.457Z,5.35
2023-04-18T02:47:54.453Z,6.03
2023-04-18T02:49:58.794Z,8.07
2023-04-18T02:52:03.153Z,7.05
2023-04-18T02:54:06.251Z,3.55
2023-04-18T02:56:24.026Z,6.35
2023-04-18T02:58:59.076Z,3.75
2023-04-18T03:01:21.379Z,4.85
2023-04-18T03:03:33.985Z,3.70
2023-04-18T03:06:15.283Z,7.00
2023-04-18T03:08:18.551Z,5.57
2023-04-18T03:10:21.653Z,6.38
2023-04-18T03:12:25.993Z,6.25
2023-04-18T03:14:29.636Z,4.88
2023-04-18T03:16:32.650Z,4.60
2023-04-18T03:18:37.750Z,3.95
2023-04-18T03:20:41.473Z,6.00
2023-04-18T03:22:44.721Z,4.00
2023-04-18T03:24:48.671Z,3.92
2023-04-18T03:26:53.231Z,3.95
2023-04-18T03:28:59.981Z,8.43
2023-04-18T03:31:03.686Z,5.07
2023-04-18T03:33:09.410Z,5.32
2023-04-18T03:35:13.761Z,6.53
2023-04-18T03:37:17.314Z,5.32
2023-04-18T03:39:26.150Z,4.85
2023-04-18T03:41:30.300Z,5.43
2023-04-18T03:43:33.970Z,5.25
2023-04-18T03:45:37.342Z,7.10
2023-04-18T03:47:41.305Z,6.90
2023-04-18T03:49:44.309Z,5.90
2023-04-18T03:51:49.241Z,6.57
2023-04-18T03:53:52.332Z,6.20
2023-04-18T03:55:55.362Z,4.18
2023-04-18T03:58:02.512Z,6.43
2023-04-18T04:00:08.457Z,6.57
2023-04-18T04:02:18.641Z,6.38
2023-04-18T04:04:22.043Z,6.00
2023-04-18T04:06:26.721Z,6.95
2023-04-18T04:08:31.936Z,6.40
2023-04-18T04:10:34.970Z,4.82
2023-04-18T04:12:37.859Z,7.55
2023-04-18T04:14:40.967Z,5.53
2023-04-18T04:16:46.149Z,6.50
2023-04-18T04:18:52.170Z,6.90
2023-04-18T04:21:00.470Z,8.35
2023-04-18T04:23:15.906Z,8.07
2023-04-18T04:25:24.637Z,7.20
2023-04-18T04:27:29.512Z,6.70
2023-04-18T04:29:33.052Z,9.10
2023-04-18T04:31:36.239Z,6.50
2023-04-18T04:33:39.292Z,8.13
2023-04-18T04:35:48.594Z,8.07
2023-04-18T04:37:52.062Z,9.80
2023-04-18T04:40:01.524Z,8.52
2023-04-18T04:42:26.131Z,8.85
2023-04-18T04:44:37.778Z,8.82
2023-04-18T04:46:41.842Z,9.05
2023-04-18T04:48:50.762Z,9.90
2023-04-18T04:50:56.681Z,8.27
2023-04-18T04:53:00.056Z,9.30
2023-04-18T04:55:03.232Z,10.68
2023-04-18T04:57:06.310Z,11.30
2023-04-18T04:59:11.442Z,11.02
2023-04-18T05:01:20.336Z,9.10
2023-04-18T05:03:23.559Z,9.90
2023-04-18T05:05:26.935Z,9.85
2023-04-18T05:07:29.929Z,12.13
2023-04-18T05:09:32.774Z,11.35
2023-04-18T05:11:35.853Z,11.05
2023-04-18T05:13:38.778Z,11.90
2023-04-18T05:15:44.477Z,14.10
2023-04-18T05:17:47.500Z,12.55
2023-04-18T05:19:50.562Z,10.43
2023-04-18T05:21:53.461Z,12.00
2023-04-18T05:23:56.594Z,20.13
2023-04-18T05:25:59.959Z,12.77
2023-04-18T05:28:04.968Z,13.85
2023-04-18T05:30:08.888Z,14.65
2023-04-18T05:32:13.426Z,14.15
2023-04-18T05:34:16.645Z,14.82
2023-04-18T05:36:19.701Z,16.67
2023-04-18T05:38:22.595Z,15.52
2023-04-18T05:40:25.958Z,14.45
2023-04-18T05:42:28.964Z,16.27
2023-04-18T05:44:31.908Z,15.00
2023-04-18T05:46:35.108Z,18.20
2023-04-18T05:48:39.598Z,13.63
2023-04-18T05:50:42.468Z,19.65
2023-04-18T05:52:45.544Z,17.85
2023-04-18T05:54:48.444Z,15.43
2023-04-18T05:56:51.755Z,16.58
2023-04-18T05:58:54.672Z,16.60
2023-04-18T06:00:57.660Z,15.93
2023-04-18T06:03:00.933Z,17.50
2023-04-18T06:05:06.985Z,15.70
2023-04-18T06:07:10.355Z,17.60
2023-04-18T06:09:13.277Z,19.67
2023-04-18T06:11:16.312Z,19.42
2023-04-18T06:13:19.356Z,16.65
2023-04-18T06:15:22.183Z,15.77
2023-04-18T06:17:25.234Z,17.17
2023-04-18T06:19:28.302Z,21.05
2023-04-18T06:21:32.747Z,16.52
2023-04-18T06:23:35.642Z,16.95
2023-04-18T06:25:38.767Z,18.15
2023-04-18T06:27:41.635Z,26.15
2023-04-18T06:29:44.612Z,22.95
2023-04-18T06:31:48.700Z,19.48
2023-04-18T06:33:51.886Z,21.02
2023-04-18T06:35:54.823Z,20.52
2023-04-18T06:37:59.287Z,19.08
2023-04-18T06:40:02.333Z,17.27
2023-04-18T06:42:05.283Z,18.90
2023-04-18T06:44:08.142Z,17.13
2023-04-18T06:46:11.265Z,21.27
2023-04-18T06:48:14.253Z,19.25
2023-04-18T06:50:17.290Z,18.90
2023-04-18T06:52:20.303Z,19.23
2023-04-18T06:54:24.984Z,17.48
2023-04-18T06:56:27.896Z,17.30
2023-04-18T06:58:31.027Z,21.00
2023-04-18T07:00:33.943Z,19.23
2023-04-18T07:02:38.248Z,19.67
2023-04-18T07:04:41.758Z,18.40
2023-04-18T07:06:45.143Z,17.50
2023-04-18T07:08:48.052Z,22.33
2023-04-18T07:10:52.686Z,19.25
2023-04-18T07:12:55.787Z,22.33
2023-04-18T07:14:58.757Z,22.20
2023-04-18T07:17:02.079Z,24.10
2023-04-18T07:19:05.761Z,21.63
2023-04-18T07:21:08.654Z,19.27
2023-04-18T07:23:12.197Z,17.80
2023-04-18T07:25:15.638Z,22.27
2023-04-18T07:27:20.281Z,17.67
2023-04-18T07:29:23.192Z,23.65
2023-04-18T07:31:28.841Z,25.25
2023-04-18T07:33:34.092Z,18.67
2023-04-18T07:35:37.410Z,16.83
2023-04-18T07:37:40.437Z,18.70
2023-04-18T07:39:43.412Z,22.83
2023-04-18T07:41:46.459Z,21.90
2023-04-18T07:43:50.939Z,15.75
2023-04-18T07:45:54.523Z,22.88
2023-04-18T07:47:57.494Z,23.00
2023-04-18T07:50:00.399Z,18.65
2023-04-18T07:52:03.726Z,20.42
2023-04-18T07:54:06.724Z,18.17
2023-04-18T07:56:09.933Z,20.30
2023-04-18T07:58:12.871Z,20.73
2023-04-18T08:00:18.347Z,16.95
2023-04-18T08:02:21.926Z,17.80
2023-04-18T08:04:27.628Z,17.23
2023-04-18T08:06:32.124Z,16.63
2023-04-18T08:08:35.132Z,24.98
2023-04-18T08:10:38.204Z,21.70
2023-04-18T08:12:41.380Z,17.88
2023-04-18T08:14:44.309Z,17.25
2023-04-18T08:16:50.937Z,20.38
2023-04-18T08:18:54.034Z,21.02
2023-04-18T08:20:57.056Z,18.33
2023-04-18T08:23:06.243Z,17.52
2023-04-18T08:25:11.868Z,16.15
2023-04-18T08:27:14.836Z,16.90
2023-04-18T08:29:17.856Z,19.20
2023-04-18T08:31:21.026Z,16.10
2023-04-18T08:33:25.558Z,13.50
2023-04-18T08:35:28.582Z,15.15
2023-04-18T08:37:32.006Z,18.48
2023-04-18T08:39:35.732Z,14.82
2023-04-18T08:41:40.187Z,14.90
2023-04-18T08:43:48.395Z,16.80
2023-04-18T08:45:53.164Z,17.35
2023-04-18T08:47:58.147Z,18.27
2023-04-18T08:50:02.871Z,16.65
2023-04-18T08:52:11.663Z,15.63
2023-04-18T08:54:15.620Z,15.10
2023-04-18T08:56:22.711Z,18.02
2023-04-18T08:58:27.806Z,18.80
2023-04-18T09:00:30.807Z,19.33
2023-04-18T09:02:43.131Z,15.05
2023-04-18T09:04:49.475Z,15.90
2023-04-18T09:06:54.009Z,17.45
2023-04-18T09:08:59.295Z,13.38
2023-04-18T09:11:26.329Z,19.35
2023-04-18T09:13:47.770Z,16.65
2023-04-18T09:15:56.600Z,13.85
2023-04-18T09:18:00.815Z,15.80
2023-04-18T09:20:10.554Z,16.65
2023-04-18T09:22:16.365Z,16.50
2023-04-18T09:24:24.482Z,17.23
2023-04-18T09:26:36.189Z,13.95
2023-04-18T09:28:40.923Z,13.13
2023-04-18T09:30:44.229Z,14.02
2023-04-18T09:32:59.084Z,13.63
2023-04-18T09:35:05.732Z,16.10
2023-04-18T09:37:10.293Z,15.15
2023-04-18T09:39:28.373Z,13.00
2023-04-18T09:41:33.040Z,17.33
2023-04-18T09:43:35.928Z,14.97
2023-04-18T09:45:39.688Z,11.75
2023-04-18T09:47:44.132Z,11.55
2023-04-18T09:49:47.095Z,13.15
2023-04-18T09:51:52.025Z,13.98
2023-04-18T09:53:55.274Z,11.60
2023-04-18T09:56:00.284Z,12.95
2023-04-18T09:58:04.545Z,13.45
2023-04-18T10:00:24.518Z,12.82
2023-04-18T10:02:35.154Z,14.10
2023-04-18T10:04:38.337Z,15.20
2023-04-18T10:06:43.323Z,12.20
2023-04-18T10:08:48.332Z,11.52
2023-04-18T10:10:51.340Z,13.77
2023-04-18T10:12:58.002Z,12.32
2023-04-18T10:15:01.762Z,16.45
2023-04-18T10:17:04.834Z,9.57
2023-04-18T10:19:25.085Z,16.00
2023-04-18T10:21:29.540Z,11.38
2023-04-18T10:23:37.129Z,10.00
2023-04-18T10:25:50.393Z,13.57
2023-04-18T10:27:59.194Z,8.95
2023-04-18T10:30:02.418Z,13.63
2023-04-18T10:32:07.503Z,14.32
2023-04-18T10:34:17.793Z,10.13
2023-04-18T10:36:21.803Z,12.63
2023-04-18T10:38:24.772Z,14.82
2023-04-18T10:40:33.648Z,11.60
2023-04-18T10:42:59.750Z,13.00
2023-04-18T10:45:18.977Z,12.68
2023-04-18T10:47:22.776Z,11.00
2023-04-18T10:49:28.942Z,12.57
2023-04-18T10:51:33.263Z,15.15
2023-04-18T10:53:36.285Z,10.30
2023-04-18T10:55:46.485Z,13.50
2023-04-18T10:57:50.959Z,10.85
2023-04-18T10:59:55.915Z,10.88
2023-04-18T11:02:05.628Z,11.07
2023-04-18T11:04:14.131Z,11.77
2023-04-18T11:06:17.372Z,13.40
2023-04-18T11:08:24.528Z,10.02
2023-04-18T11:10:28.185Z,10.73
2023-04-18T11:12:36.242Z,11.45
2023-04-18T11:14:43.456Z,12.98
2023-04-18T11:16:47.916Z,10.60
2023-04-18T11:18:51.467Z,9.85
2023-04-18T11:20:54.362Z,11.00
2023-04-18T11:22:58.618Z,15.65
2023-04-18T11:25:07.496Z,9.98
2023-04-18T11:27:11.422Z,14.30
2023-04-18T11:29:14.390Z,9.52
2023-04-18T11:31:17.447Z,15.82
2023-04-18T11:33:22.145Z,11.68
2023-04-18T11:35:25.214Z,8.88
2023-04-18T11:37:28.145Z,10.48
2023-04-18T11:39:34.915Z,9.27
2023-04-18T11:41:37.933Z,9.38
2023-04-18T11:43:43.506Z,9.32
2023-04-18T11:45:52.388Z,10.95
2023-04-18T11:47:58.472Z,10.68
2023-04-18T11:50:04.377Z,11.45
2023-04-18T11:52:13.780Z,8.65
2023-04-18T11:54:40.902Z,12.23
2023-04-18T11:56:48.794Z,9.38
2023-04-18T11:58:51.998Z,13.90
2023-04-18T12:00:55.015Z,9.52
2023-04-18T12:02:59.728Z,9.98
2023-04-18T12:05:05.288Z,15.00
2023-04-18T12:09:14.225Z,12.60
2023-04-18T12:11:21.889Z,9.43
2023-04-18T12:13:26.895Z,7.13
2023-04-18T12:15:30.514Z,11.10
2023-04-18T12:17:33.790Z,9.27
2023-04-18T12:19:36.733Z,10.93
2023-04-18T12:21:57.414Z,10.13
2023-04-18T12:24:00.963Z,8.68
2023-04-18T12:26:05.975Z,10.45
2023-04-18T12:28:15.415Z,11.82
2023-04-18T12:30:22.921Z,8.15
2023-04-18T12:32:25.850Z,10.05
2023-04-18T12:34:29.023Z,10.35
2023-04-18T12:36:31.980Z,11.13
2023-04-18T12:38:36.412Z,10.63
2023-04-18T12:40:41.062Z,16.02
2023-04-18T12:42:44.134Z,12.73
2023-04-18T12:44:47.997Z,13.65
2023-04-18T12:46:51.641Z,9.00
2023-04-18T12:48:54.636Z,10.73
2023-04-18T12:50:57.628Z,12.70
2023-04-18T12:53:02.239Z,12.48
2023-04-18T12:55:08.671Z,9.85
2023-04-18T12:57:11.528Z,12.68
2023-04-18T12:59:14.765Z,14.07
2023-04-18T13:01:18.433Z,11.88
2023-04-18T13:03:21.716Z,11.18
2023-04-18T13:05:28.084Z,9.63
2023-04-18T13:07:33.262Z,10.10
2023-04-18T13:09:36.797Z,9.15
2023-04-18T13:11:41.298Z,10.65
2023-04-18T13:13:44.263Z,11.05
2023-04-18T13:15:47.114Z,9.85
2023-04-18T13:17:51.048Z,10.52
2023-04-18T13:19:54.142Z,10.00
2023-04-18T13:21:57.087Z,9.13
2023-04-18T13:24:01.368Z,9.82
2023-04-18T13:26:04.276Z,12.57
2023-04-18T13:28:08.685Z,10.57
2023-04-18T13:30:12.423Z,10.75
2023-04-18T13:32:15.554Z,8.55
2023-04-18T13:34:18.447Z,13.93
2023-04-18T13:36:21.881Z,9.35
2023-04-18T13:38:25.243Z,13.95
2023-04-18T13:40:28.238Z,11.93
2023-04-18T13:42:31.273Z,11.73
2023-04-18T13:44:37.097Z,11.55
2023-04-18T13:48:42.659Z,11.73
2023-04-18T13:50:45.567Z,14.15
2023-04-18T13:52:49.572Z,12.60
2023-04-18T13:54:52.636Z,16.88
2023-04-18T13:56:58.328Z,14.15
2023-04-18T14:01:05.597Z,10.10
2023-04-18T14:03:08.604Z,12.80
2023-04-18T14:05:11.877Z,12.05
2023-04-18T14:07:14.901Z,13.77
2023-04-18T14:09:18.315Z,15.82
2023-04-18T14:11:21.502Z,15.40
2023-04-18T14:13:24.552Z,14.32
2023-04-18T14:15:27.462Z,14.85
2023-04-18T14:17:31.951Z,15.23
2023-04-18T14:19:35.222Z,16.05
2023-04-18T14:21:38.293Z,16.33
2023-04-18T14:23:41.184Z,9.60
2023-04-18T14:25:44.400Z,14.88
2023-04-18T14:27:48.430Z,14.43
2023-04-18T14:29:51.633Z,14.10
2023-04-18T14:31:54.938Z,13.45
2023-04-18T14:33:59.356Z,10.77
2023-04-18T14:36:02.773Z,11.23
2023-04-18T14:38:05.904Z,16.20
2023-04-18T14:40:10.183Z,9.90
2023-04-18T14:42:13.042Z,11.27
2023-04-18T14:44:15.873Z,15.90
2023-04-18T14:46:19.184Z,14.77
2023-04-18T14:48:22.171Z,16.75
2023-04-18T14:50:27.031Z,15.35
2023-04-18T14:52:29.872Z,15.15
2023-04-18T14:54:32.954Z,20.65
2023-04-18T14:56:35.905Z,15.23
2023-04-18T14:58:38.782Z,17.30
2023-04-18T15:00:42.163Z,15.70
2023-04-18T15:02:45.393Z,19.33
2023-04-18T15:04:48.726Z,17.65
2023-04-18T15:06:53.209Z,14.27
2023-04-18T15:08:57.049Z,16.20
2023-04-18T15:11:00.362Z,13.65
2023-04-18T15:13:03.317Z,13.20
2023-04-18T15:15:07.181Z,12.82
2023-04-18T15:17:10.268Z,13.65
2023-04-18T15:19:13.778Z,12.90
2023-04-18T15:21:16.651Z,16.67
2023-04-18T15:23:21.900Z,19.38
2023-04-18T15:25:26.450Z,13.55
2023-04-18T15:27:29.383Z,15.27
2023-04-18T15:29:32.344Z,14.00
2023-04-18T15:31:36.709Z,17.23
2023-04-18T15:33:41.874Z,11.02
2023-04-18T15:35:44.935Z,11.25
2023-04-18T15:37:47.935Z,13.30
2023-04-18T15:39:52.539Z,17.08
2023-04-18T15:41:55.677Z,11.93
2023-04-18T15:43:58.660Z,15.32
2023-04-18T15:46:01.641Z,13.80
2023-04-18T15:48:04.798Z,17.52
2023-04-18T15:50:09.531Z,13.65
2023-04-18T15:52:14.020Z,18.90
2023-04-18T15:54:17.143Z,14.30
2023-04-18T15:56:21.908Z,18.60
2023-04-18T15:58:28.040Z,17.17
2023-04-18T16:00:31.204Z,21.08
2023-04-18T16:02:34.202Z,15.30
2023-04-18T16:04:37.315Z,20.63
2023-04-18T16:06:40.899Z,16.10
2023-04-18T16:08:44.060Z,17.92
2023-04-18T16:10:48.389Z,18.25
2023-04-18T16:12:53.916Z,15.48
2023-04-18T16:14:56.799Z,15.45
2023-04-18T16:17:00.165Z,14.85
2023-04-18T16:19:04.458Z,16.65
2023-04-18T16:21:07.328Z,20.85
2023-04-18T16:23:10.168Z,17.08
2023-04-18T16:25:13.270Z,18.00
2023-04-18T16:27:16.548Z,18.08
2023-04-18T16:29:21.460Z,17.63
2023-04-18T16:31:24.613Z,20.65
2023-04-18T16:33:27.703Z,26.35
2023-04-18T16:35:30.745Z,23.55
2023-04-18T16:37:33.853Z,26.65
2023-04-18T16:39:37.023Z,20.00
2023-04-18T16:41:40.127Z,23.52
2023-04-18T16:43:43.088Z,20.27
2023-04-18T16:45:47.466Z,23.23
2023-04-18T16:47:50.359Z,23.55
2023-04-18T16:49:53.705Z,30.50
2023-04-18T16:51:56.644Z,30.73
2023-04-18T16:53:59.831Z,28.60
2023-04-18T16:56:03.621Z,31.42
2023-04-18T16:58:06.604Z,39.33
2023-04-18T17:00:10.695Z,36.33
2023-04-18T17:02:15.257Z,39.33
2023-04-18T17:04:18.382Z,42.13
2023-04-18T17:06:22.967Z,40.60
2023-04-18T17:08:28.919Z,24.67
2023-04-18T17:10:32.180Z,25.08
2023-04-18T17:12:35.062Z,31.33
2023-04-18T17:14:38.184Z,30.35
2023-04-18T17:16:42.574Z,30.98
2023-04-18T17:18:47.048Z,31.38
2023-04-18T17:20:50.081Z,29.92
2023-04-18T17:22:53.035Z,30.35
2023-04-18T17:24:55.947Z,27.38
2023-04-18T17:26:58.952Z,29.20
2023-04-18T17:29:03.614Z,28.25
2023-04-18T17:31:07.035Z,25.38
2023-04-18T17:33:10.761Z,26.17
2023-04-18T17:35:15.283Z,23.58
2023-04-18T17:37:18.151Z,21.30
2023-04-18T17:39:21.149Z,21.75
2023-04-18T17:41:24.311Z,21.38
2023-04-18T17:43:27.410Z,21.88
2023-04-18T17:45:30.329Z,22.75
2023-04-18T17:47:33.941Z,25.70
2023-04-18T17:49:36.799Z,25.23
2023-04-18T17:51:41.166Z,27.17
2023-04-18T17:53:44.312Z,28.15
2023-04-18T17:55:49.150Z,24.95
2023-04-18T17:57:52.011Z,28.67
2023-04-18T17:59:55.019Z,31.70
2023-04-18T18:01:58.945Z,28.58
2023-04-18T18:04:02.202Z,31.85
2023-04-18T18:06:05.068Z,31.42
2023-04-18T18:08:09.850Z,32.67
2023-04-18T18:10:12.729Z,31.65
2023-04-18T18:12:15.700Z,29.65
2023-04-18T18:14:18.651Z,33.95
2023-04-18T18:16:22.068Z,29.92
2023-04-18T18:18:25.444Z,23.13
2023-04-18T18:20:28.693Z,34.17
2023-04-18T18:22:31.961Z,24.50
2023-04-18T18:24:36.333Z,24.58
2023-04-18T18:26:39.193Z,25.80
2023-04-18T18:28:42.053Z,28.05
2023-04-18T18:30:45.083Z,29.83
2023-04-18T18:32:48.134Z,32.13
2023-04-18T18:34:51.071Z,30.88
2023-04-18T18:36:54.018Z,31.23
2023-04-18T18:38:57.052Z,25.25
2023-04-18T18:41:03.760Z,25.92
2023-04-18T18:43:06.809Z,25.98
2023-04-18T18:45:10.875Z,33.60
2023-04-18T18:47:13.853Z,25.90
2023-04-18T18:49:16.829Z,31.15
2023-04-18T18:51:19.750Z,34.30
2023-04-18T18:53:22.824Z,35.33
2023-04-18T18:55:25.700Z,41.90
2023-04-18T18:57:30.232Z,34.15
2023-04-18T18:59:33.232Z,30.17
2023-04-18T19:01:36.425Z,29.58
2023-04-18T19:03:39.730Z,29.00
2023-04-18T19:05:42.685Z,31.02
2023-04-18T19:07:45.517Z,25.85
2023-04-18T19:09:48.782Z,22.13
2023-04-18T19:11:51.642Z,22.70
2023-04-18T19:13:56.033Z,22.55
2023-04-18T19:15:59.111Z,28.80
2023-04-18T19:18:02.413Z,25.60
2023-04-18T19:20:06.616Z,22.95
2023-04-18T19:22:09.553Z,21.88
2023-04-18T19:24:12.528Z,29.05
2023-04-18T19:26:15.647Z,29.30
2023-04-18T19:28:18.706Z,25.05
2023-04-18T19:30:23.474Z,22.02
2023-04-18T19:32:27.115Z,29.93
2023-04-18T19:34:30.121Z,35.47
2023-04-18T19:36:32.960Z,38.53
2023-04-18T19:38:36.261Z,59.78
2023-04-18T19:40:39.215Z,55.47
2023-04-18T19:42:42.104Z,69.32
2023-04-18T19:44:44.962Z,80.10
2023-04-18T19:46:49.655Z,69.28
2023-04-18T19:48:52.657Z,48.85
2023-04-18T19:50:57.361Z,67.55
2023-04-18T19:53:00.179Z,66.10
2023-04-18T19:55:03.262Z,64.57
2023-04-18T19:57:06.678Z,46.92
2023-04-18T19:59:09.541Z,49.17
2023-04-18T20:01:12.919Z,40.38
2023-04-18T20:03:17.636Z,39.53
2023-04-18T20:05:20.916Z,34.90
2023-04-18T20:07:26.268Z,36.75
2023-04-18T20:09:29.411Z,32.00
2023-04-18T20:11:32.657Z,30.90
2023-04-18T20:13:37.042Z,25.42
2023-04-18T20:15:40.691Z,31.23
2023-04-18T20:17:43.584Z,27.60
2023-04-18T20:19:49.958Z,29.92
2023-04-18T20:21:52.947Z,29.83
2023-04-18T20:23:56.887Z,28.15
2023-04-18T20:25:59.921Z,27.10
2023-04-18T20:28:03.353Z,33.60
2023-04-18T20:30:07.465Z,28.92
2023-04-18T20:32:12.100Z,27.88
2023-04-18T20:34:15.020Z,27.13
2023-04-18T20:36:20.076Z,33.97
2023-04-18T20:38:26.361Z,31.42
2023-04-18T20:40:29.612Z,27.42
2023-04-18T20:42:32.626Z,34.33
2023-04-18T20:44:36.363Z,25.77
2023-04-18T20:46:39.350Z,40.58
2023-04-18T20:48:44.210Z,40.50
2023-04-18T20:50:51.693Z,37.47
2023-04-18T20:52:56.355Z,43.67
2023-04-18T20:54:59.539Z,49.92
2023-04-18T20:57:02.949Z,43.47
2023-04-18T20:59:06.070Z,42.08
2023-04-18T21:01:09.030Z,41.70
2023-04-18T21:03:14.170Z,40.10
2023-04-18T21:05:17.271Z,34.75
2023-04-18T21:07:20.099Z,31.92
2023-04-18T21:09:24.673Z,37.58
2023-04-18T21:11:27.500Z,32.85
2023-04-18T21:13:31.599Z,30.08
2023-04-18T21:15:35.288Z,32.60
2023-04-18T21:17:38.204Z,33.70
2023-04-18T21:19:41.140Z,29.92
2023-04-18T21:21:44.119Z,32.95
2023-04-18T21:23:47.010Z,31.50
2023-04-18T21:25:51.391Z,32.90
2023-04-18T21:27:54.404Z,28.33
2023-04-18T21:29:57.458Z,31.80
2023-04-18T21:32:00.425Z,32.60
2023-04-18T21:34:04.623Z,36.08
2023-04-18T21:36:07.827Z,33.90
2023-04-18T21:38:10.801Z,32.53
2023-04-18T21:40:14.788Z,35.60
2023-04-18T21:42:19.410Z,35.00
2023-04-18T21:44:22.232Z,33.75
2023-04-18T21:46:26.439Z,28.25
2023-04-18T21:48:29.449Z,33.75
2023-04-18T21:50:32.439Z,30.17
2023-04-18T21:52:35.532Z,29.10
2023-04-18T21:54:40.141Z,29.80
2023-04-18T21:56:43.421Z,32.63
2023-04-18T21:58:48.062Z,32.78
2023-04-18T22:00:51.062Z,36.80
2023-04-18T22:02:54.098Z,36.17
2023-04-18T22:04:57.046Z,37.72
2023-04-18T22:07:00.282Z,42.45
2023-04-18T22:09:03.193Z,32.75
2023-04-18T22:11:06.269Z,35.92
2023-04-18T22:13:09.360Z,35.00
2023-04-18T22:15:13.985Z,34.22
2023-04-18T22:17:16.865Z,34.25
2023-04-18T22:19:20.657Z,35.20
2023-04-18T22:21:23.555Z,33.17
2023-04-18T22:23:27.087Z,33.33
2023-04-18T22:25:30.458Z,32.78
2023-04-18T22:27:33.469Z,30.33
2023-04-18T22:29:36.550Z,32.97
2023-04-18T22:31:41.010Z,36.35
2023-04-18T22:33:43.890Z,30.73
2023-04-18T22:35:47.335Z,27.23
2023-04-18T22:37:50.297Z,31.77
2023-04-18T22:39:53.183Z,35.45
2023-04-18T22:41:55.991Z,35.00
2023-04-18T22:43:58.872Z,32.28
2023-04-18T22:46:03.183Z,31.42
2023-04-18T22:48:11.723Z,32.05
2023-04-18T22:50:15.056Z,28.33
2023-04-18T22:52:18.071Z,41.80
2023-04-18T22:54:21.295Z,32.42
2023-04-18T22:56:24.341Z,32.42
2023-04-18T22:58:27.250Z,33.22
2023-04-18T23:00:30.260Z,35.50
2023-04-18T23:02:33.416Z,35.65
2023-04-18T23:04:38.087Z,34.45
2023-04-18T23:06:41.218Z,33.60
2023-04-18T23:08:44.093Z,36.88
2023-04-18T23:10:47.031Z,36.08
2023-04-18T23:12:49.945Z,34.35
2023-04-18T23:14:52.836Z,37.80
2023-04-18T23:16:55.977Z,36.97
2023-04-18T23:18:58.816Z,33.95
2023-04-18T23:21:03.240Z,32.00
2023-04-18T23:23:06.267Z,31.85
2023-04-18T23:25:09.486Z,36.90
2023-04-18T23:27:12.517Z,34.97
2023-04-18T23:29:15.516Z,35.58
2023-04-18T23:31:18.554Z,34.63
2023-04-18T23:33:21.482Z,34.83
2023-04-18T23:35:24.785Z,34.90
2023-04-18T23:37:29.206Z,33.30
2023-04-18T23:39:32.028Z,34.72
2023-04-18T23:41:35.170Z,30.42
2023-04-18T23:43:37.994Z,32.78
2023-04-18T23:45:41.080Z,34.72
2023-04-18T23:47:44.077Z,31.98
2023-04-18T23:49:47.023Z,34.08
2023-04-18T23:51:49.876Z,28.08
2023-04-18T23:53:54.487Z,31.95
2023-04-18T23:55:57.301Z,31.90
2023-04-18T23:58:00.187Z,31.15
